Time;durP1;ratioP1;P1;durP2;ratioP2;P2;SDS_P1;SDS_P2;PMS_P1;PMS_P2;Temp;Humidity;BMP_temperature;BMP_pressure;BME280_temperature;BME280_humidity;BME280_pressure;Samples;Min_cycle;Max_cycle;Signal;HPM_P1;HPM_P2
2021/06/26 00:00:52;;;;;;;3.58;1.20;;;;;;;20.69;54.24;98513.44;5034217;28;20530;-66
2021/06/26 00:03:21;;;;;;;4.40;1.40;;;;;;;20.63;54.29;98497.63;5014989;28;20037;-66
2021/06/26 00:05:47;;;;;;;5.13;1.08;;;;;;;20.86;54.29;98536.69;4999174;28;20079;-64
2021/06/26 00:08:14;;;;;;;3.13;1.20;;;;;;;20.55;54.18;98506.56;5036467;28;20025;-65
2021/06/26 00:10:41;;;;;;;3.63;1.27;;;;;;;20.65;54.94;98551.88;5017238;28;20044;-65
2021/06/26 00:13:06;;;;;;;5.60;1.50;;;;;;;20.59;55.08;98552.69;5018977;28;20083;-66
2021/06/26 00:15:32;;;;;;;5.22;1.85;;;;;;;20.41;55.29;98544.63;5015941;28;20363;-65
2021/06/26 00:17:57;;;;;;;6.85;1.80;;;;;;;20.54;55.42;98547.22;5031233;28;20041;-66
2021/06/26 00:20:23;;;;;;;5.03;1.80;;;;;;;20.47;55.50;98546.44;5027741;28;20147;-66
2021/06/26 00:22:48;;;;;;;5.68;1.77;;;;;;;20.44;55.72;98558.22;5036514;28;20061;-64
2021/06/26 00:25:14;;;;;;;6.50;1.67;;;;;;;20.13;55.94;98520.19;5020299;28;20036;-65
2021/06/26 00:27:39;;;;;;;5.53;1.63;;;;;;;20.41;55.39;98539.34;5034763;28;20033;-66
2021/06/26 00:30:06;;;;;;;6.07;1.60;;;;;;;20.37;55.22;98536.34;5031422;28;20417;-64
2021/06/26 00:32:31;;;;;;;5.15;1.60;;;;;;;20.55;55.27;98554.94;5018446;28;20033;-65
2021/06/26 00:34:57;;;;;;;5.43;1.70;;;;;;;20.67;55.29;98565.66;5016818;28;20139;-65
2021/06/26 00:37:22;;;;;;;5.30;1.70;;;;;;;20.47;55.11;98520.84;5029998;28;20081;-66
2021/06/26 00:39:47;;;;;;;6.72;1.90;;;;;;;20.63;55.23;98548.63;5034662;28;20033;-65
2021/06/26 00:42:13;;;;;;;6.30;2.03;;;;;;;20.64;55.17;98549.44;5005993;28;20100;-65
2021/06/26 00:44:38;;;;;;;6.60;1.75;;;;;;;20.36;55.50;98509.09;5035441;28;20472;-65
2021/06/26 00:47:11;;;;;;;6.88;1.85;;;;;;;20.20;56.06;98506.13;5018047;28;20104;-66
2021/06/26 00:49:37;;;;;;;7.18;2.03;;;;;;;20.52;56.10;98560.63;5027357;28;20064;-64
2021/06/26 00:52:03;;;;;;;4.82;1.85;;;;;;;20.51;56.16;98550.28;5021774;28;20032;-66
2021/06/26 00:54:28;;;;;;;4.50;2.00;;;;;;;20.39;56.53;98549.31;5009806;28;20030;-66
2021/06/26 00:56:55;;;;;;;6.65;2.13;;;;;;;20.17;56.51;98544.34;5013820;28;20049;-65
2021/06/26 00:59:20;;;;;;;6.43;1.95;;;;;;;20.21;56.80;98544.72;5021478;28;20500;-66
2021/06/26 01:01:45;;;;;;;5.60;1.70;;;;;;;20.20;57.13;98532.53;5002139;28;20048;-64
2021/06/26 01:04:11;;;;;;;5.18;1.73;;;;;;;20.17;56.97;98550.41;5024805;28;20057;-65
2021/06/26 01:06:36;;;;;;;4.00;1.77;;;;;;;20.21;57.36;98561.38;5020145;28;20037;-64
2021/06/26 01:09:02;;;;;;;4.75;1.45;;;;;;;20.21;56.92;98542.09;5017125;28;20022;-65
2021/06/26 01:11:29;;;;;;;4.60;1.70;;;;;;;20.03;57.19;98521.63;5036377;28;20436;-66
2021/06/26 01:13:54;;;;;;;4.00;1.45;;;;;;;20.27;56.98;98543.88;5038579;28;20487;-66
2021/06/26 01:16:19;;;;;;;4.28;1.55;;;;;;;20.12;57.43;98550.22;5022248;28;20333;-65
2021/06/26 01:18:45;;;;;;;5.75;1.70;;;;;;;19.92;57.73;98536.28;5037469;28;20024;-66
2021/06/26 01:21:10;;;;;;;4.43;1.45;;;;;;;19.93;57.79;98565.09;5035930;28;20038;-65
2021/06/26 01:23:37;;;;;;;4.43;1.45;;;;;;;19.94;57.82;98560.63;5021108;28;20044;-65
2021/06/26 01:26:04;;;;;;;5.95;1.65;;;;;;;19.90;57.86;98567.34;5040268;28;20770;-65
2021/06/26 01:28:29;;;;;;;4.38;1.48;;;;;;;19.90;58.29;98562.88;5013665;28;20033;-67
2021/06/26 01:30:55;;;;;;;4.32;1.45;;;;;;;19.87;57.86;98552.72;5021121;28;20681;-64
2021/06/26 01:33:20;;;;;;;3.63;1.40;;;;;;;19.84;58.27;98557.59;5021324;28;20844;-65
2021/06/26 01:35:48;;;;;;;4.60;1.40;;;;;;;19.72;57.74;98520.47;5021303;28;20067;-66
2021/06/26 01:38:13;;;;;;;3.92;1.40;;;;;;;20.02;57.79;98552.47;5038862;28;20026;-66
2021/06/26 01:40:39;;;;;;;5.65;1.63;;;;;;;20.01;57.51;98552.69;4999499;28;20576;-64
2021/06/26 01:43:04;;;;;;;5.13;1.60;;;;;;;19.98;57.71;98548.63;5021174;28;20033;-65
2021/06/26 01:45:30;;;;;;;4.97;1.58;;;;;;;19.94;58.13;98557.97;5029954;28;20394;-66
2021/06/26 01:47:57;;;;;;;5.07;1.58;;;;;;;19.96;58.27;98558.59;5017537;28;20021;-64
2021/06/26 01:50:25;;;;;;;4.53;1.50;;;;;;;19.76;58.74;98564.69;5011476;28;20107;-65
2021/06/26 01:52:51;;;;;;;5.70;1.80;;;;;;;19.32;59.31;98516.03;5004686;28;20615;-65
2021/06/26 01:55:18;;;;;;;4.50;1.60;;;;;;;19.59;59.28;98550.31;5014346;28;20033;-65
2021/06/26 01:57:46;;;;;;;4.10;1.58;;;;;;;19.27;59.63;98512.38;5020946;28;20025;-66
2021/06/26 02:00:13;;;;;;;5.10;1.43;;;;;;;19.58;59.61;98562.66;5008564;28;20108;-65
2021/06/26 02:02:39;;;;;;;4.18;1.48;;;;;;;19.63;59.03;98551.50;5001987;28;20033;-65
2021/06/26 02:05:06;;;;;;;3.80;1.50;;;;;;;19.68;59.19;98549.06;5014525;28;20029;-65
2021/06/26 02:07:33;;;;;;;4.22;1.40;;;;;;;19.69;59.29;98545.41;5010954;28;20463;-66
2021/06/26 02:09:59;;;;;;;4.88;1.20;;;;;;;19.66;58.86;98539.72;5014618;28;20339;-66
2021/06/26 02:12:25;;;;;;;4.18;1.35;;;;;;;19.52;59.14;98537.09;5037789;28;20040;-65
2021/06/26 02:14:53;;;;;;;5.00;1.50;;;;;;;19.53;59.87;98530.00;5024434;28;20364;-65
2021/06/26 02:17:19;;;;;;;5.68;1.70;;;;;;;19.58;59.99;98538.13;5019599;28;20258;-65
2021/06/26 02:19:45;;;;;;;5.22;1.35;;;;;;;19.62;60.31;98541.16;5021956;28;20022;-65
2021/06/26 02:22:10;;;;;;;3.60;1.40;;;;;;;19.61;59.92;98529.00;5019560;28;20025;-66
2021/06/26 02:24:36;;;;;;;5.05;1.60;;;;;;;19.57;60.48;98534.69;5019615;28;20033;-65
2021/06/26 02:27:01;;;;;;;4.78;1.40;;;;;;;19.58;60.78;98536.28;5030845;28;20068;-65
2021/06/26 02:29:27;;;;;;;4.68;1.40;;;;;;;19.65;61.13;98535.47;5023387;28;20850;-65
2021/06/26 02:31:52;;;;;;;4.15;1.40;;;;;;;19.71;61.09;98532.00;5024258;28;20126;-64
2021/06/26 02:34:19;;;;;;;4.90;1.55;;;;;;;19.71;60.61;98538.13;5018852;28;20488;-66
2021/06/26 02:36:44;;;;;;;3.75;1.42;;;;;;;19.69;61.21;98537.50;5022005;28;20068;-63
2021/06/26 02:39:09;;;;;;;3.90;1.45;;;;;;;19.40;61.23;98494.75;5032340;28;20310;-64
2021/06/26 02:41:35;;;;;;;5.15;1.38;;;;;;;19.67;61.62;98539.53;5019337;28;20770;-64
2021/06/26 02:44:00;;;;;;;3.97;1.35;;;;;;;19.54;60.96;98537.72;5013599;28;20021;-64
2021/06/26 02:46:26;;;;;;;5.07;1.48;;;;;;;19.31;61.84;98518.88;5024425;28;20195;-65
2021/06/26 02:48:51;;;;;;;3.70;1.30;;;;;;;19.50;61.24;98539.13;5015755;28;20029;-64
2021/06/26 02:51:16;;;;;;;3.35;1.40;;;;;;;19.57;61.31;98533.88;5040553;28;20464;-64
2021/06/26 02:53:42;;;;;;;3.42;1.40;;;;;;;19.52;60.91;98525.75;5013386;28;20024;-63
2021/06/26 02:56:07;;;;;;;3.65;1.30;;;;;;;19.49;60.77;98534.88;5039072;28;20068;-65
2021/06/26 02:58:33;;;;;;;3.47;1.20;;;;;;;19.53;61.28;98537.91;5033775;28;20037;-65
2021/06/26 03:00:58;;;;;;;7.45;1.73;;;;;;;19.46;61.71;98545.00;5001453;28;20025;-65
2021/06/26 03:03:24;;;;;;;3.42;1.30;;;;;;;19.62;61.94;98546.44;5037705;28;20029;-63
2021/06/26 03:05:49;;;;;;;4.28;1.67;;;;;;;19.61;62.08;98548.25;5018666;28;20078;-64
2021/06/26 03:08:15;;;;;;;5.20;1.40;;;;;;;19.57;62.21;98541.78;5014916;28;20025;-64
2021/06/26 03:10:40;;;;;;;5.43;1.40;;;;;;;19.57;62.23;98545.22;5018165;28;20435;-64
2021/06/26 03:13:06;;;;;;;3.95;1.45;;;;;;;19.49;62.81;98539.34;5015980;28;20032;-65
2021/06/26 03:15:32;;;;;;;4.63;1.50;;;;;;;19.35;61.41;98505.09;5021612;28;20091;-64
2021/06/26 03:17:58;;;;;;;4.45;1.23;;;;;;;19.54;62.27;98552.72;5015087;28;20017;-66
2021/06/26 03:20:23;;;;;;;5.22;1.42;;;;;;;19.44;62.24;98541.78;5025820;28;20448;-65
2021/06/26 03:22:48;;;;;;;3.20;1.23;;;;;;;19.43;62.75;98556.78;5014577;28;20021;-63
2021/06/26 03:25:14;;;;;;;3.13;1.10;;;;;;;19.33;62.48;98540.56;5034259;28;20026;-65
2021/06/26 03:27:41;;;;;;;3.78;1.45;;;;;;;19.49;61.89;98549.88;5018794;28;20714;-64
2021/06/26 03:30:07;;;;;;;5.10;1.20;;;;;;;19.17;62.71;98518.06;5015100;28;20028;-65
2021/06/26 03:32:33;;;;;;;2.88;1.20;;;;;;;19.34;62.96;98553.53;5014581;28;20029;-66
2021/06/26 03:34:59;;;;;;;3.63;1.23;;;;;;;19.52;62.30;98555.56;5019034;28;20045;-65
2021/06/26 03:37:24;;;;;;;3.80;1.20;;;;;;;19.30;61.27;98512.78;5021119;28;20088;-64
2021/06/26 03:39:50;;;;;;;4.60;1.40;;;;;;;19.48;62.23;98554.34;5028193;28;20121;-64
2021/06/26 03:42:15;;;;;;;4.28;1.30;;;;;;;19.55;61.55;98559.63;5018289;28;20112;-65
2021/06/26 03:44:41;;;;;;;3.75;1.20;;;;;;;19.44;62.75;98563.69;5018351;28;20821;-65
2021/06/26 03:47:06;;;;;;;5.68;1.60;;;;;;;19.58;61.88;98570.56;5013270;28;20021;-64
2021/06/26 03:49:35;;;;;;;3.83;1.27;;;;;;;19.55;61.32;98570.19;5016110;28;20030;-64
2021/06/26 03:52:00;;;;;;;4.03;1.23;;;;;;;19.48;61.37;98566.75;5033984;28;20059;-63
2021/06/26 03:54:27;;;;;;;3.60;1.17;;;;;;;19.39;61.70;98561.66;5018958;28;20279;-65
2021/06/26 03:56:52;;;;;;;3.83;1.40;;;;;;;19.46;62.74;98576.66;5014989;28;20559;-64
2021/06/26 03:59:17;;;;;;;4.57;1.25;;;;;;;19.42;62.55;98576.25;5031635;28;20025;-66
2021/06/26 04:01:43;;;;;;;3.60;1.20;;;;;;;19.40;62.81;98567.72;5036915;28;20033;-64
2021/06/26 04:04:08;;;;;;;4.57;1.30;;;;;;;19.28;63.01;98561.47;5018127;28;20029;-65
2021/06/26 04:06:34;;;;;;;3.20;1.20;;;;;;;19.46;62.99;98589.84;5000290;28;20616;-64
2021/06/26 04:08:59;;;;;;;4.20;1.20;;;;;;;19.45;62.42;98585.59;5032540;28;20029;-64
2021/06/26 04:11:24;;;;;;;4.00;1.30;;;;;;;19.57;62.54;98594.53;5034269;28;20430;-64
2021/06/26 04:13:50;;;;;;;4.30;1.40;;;;;;;19.30;62.15;98546.25;5019265;28;20250;-64
2021/06/26 04:16:15;;;;;;;4.38;1.10;;;;;;;19.56;62.36;98595.53;5000860;28;20424;-63
2021/06/26 04:18:41;;;;;;;2.90;1.10;;;;;;;19.55;62.00;98593.91;5017547;28;20044;-65
2021/06/26 04:21:06;;;;;;;4.10;2.33;;;;;;;19.55;62.13;98607.09;5015425;28;20784;-65
2021/06/26 04:23:31;;;;;;;3.47;2.28;;;;;;;19.53;62.20;98601.19;5019086;28;20113;-65
2021/06/26 04:25:57;;;;;;;4.75;2.95;;;;;;;19.53;62.31;98602.03;5017134;28;20376;-65
2021/06/26 04:28:22;;;;;;;4.05;2.40;;;;;;;19.54;62.66;98603.63;5035699;28;20104;-65
2021/06/26 04:30:47;;;;;;;4.80;2.42;;;;;;;19.48;62.41;98596.53;5018859;28;20046;-65
2021/06/26 04:33:13;;;;;;;4.88;1.85;;;;;;;19.30;62.85;98596.34;5017341;28;20498;-64
2021/06/26 04:35:38;;;;;;;4.68;2.30;;;;;;;19.23;63.54;98598.16;5008530;28;20034;-65
2021/06/26 04:38:04;;;;;;;4.80;3.00;;;;;;;18.99;63.82;98555.53;5018393;28;20029;-65
2021/06/26 04:40:30;;;;;;;5.97;2.33;;;;;;;19.32;63.94;98599.56;5015170;28;20040;-65
2021/06/26 04:42:55;;;;;;;4.35;2.20;;;;;;;19.40;63.61;98607.28;5037111;28;20017;-65
2021/06/26 04:45:21;;;;;;;5.40;2.65;;;;;;;19.33;64.01;98599.38;5015140;28;20029;-65
2021/06/26 04:47:46;;;;;;;6.60;2.30;;;;;;;19.27;64.48;98608.06;5009479;28;20022;-65
2021/06/26 04:50:12;;;;;;;3.80;2.22;;;;;;;19.26;64.50;98601.19;5031196;28;20468;-65
2021/06/26 04:52:42;;;;;;;5.30;2.30;;;;;;;19.27;64.22;98608.06;5020634;28;20037;-66
2021/06/26 04:55:08;;;;;;;6.43;3.28;;;;;;;19.27;64.17;98605.44;5029627;28;20116;-65
2021/06/26 04:57:33;;;;;;;4.22;2.28;;;;;;;19.33;64.05;98602.03;5031599;28;20112;-65
2021/06/26 04:59:59;;;;;;;3.72;2.83;;;;;;;18.83;65.04;98564.63;5018635;28;20146;-65
2021/06/26 05:02:24;;;;;;;4.15;2.72;;;;;;;19.05;65.24;98599.53;5029032;28;20030;-65
2021/06/26 05:04:50;;;;;;;3.80;2.05;;;;;;;19.02;64.92;98571.75;5003200;28;20664;-65
2021/06/26 05:07:15;;;;;;;3.83;2.20;;;;;;;19.24;65.39;98602.41;5012534;28;20029;-65
2021/06/26 05:09:40;;;;;;;3.80;2.20;;;;;;;19.32;63.66;98607.50;5035315;28;20033;-65
2021/06/26 05:12:07;;;;;;;4.13;2.75;;;;;;;19.14;63.39;98563.25;5021145;28;20208;-64
2021/06/26 05:14:32;;;;;;;5.28;3.05;;;;;;;19.37;63.20;98611.13;5035216;28;20057;-64
2021/06/26 05:16:58;;;;;;;3.42;1.85;;;;;;;19.48;63.63;98611.56;5020853;28;20766;-66
2021/06/26 05:19:23;;;;;;;4.35;1.80;;;;;;;19.43;63.49;98614.78;5019199;28;20104;-65
2021/06/26 05:21:49;;;;;;;4.22;1.70;;;;;;;19.40;63.35;98609.91;5011282;28;20049;-65
2021/06/26 05:24:14;;;;;;;5.22;2.85;;;;;;;19.48;63.07;98611.56;5018050;28;20045;-65
2021/06/26 05:26:40;;;;;;;4.30;2.53;;;;;;;19.11;64.92;98601.38;5017886;28;20350;-65
2021/06/26 05:29:05;;;;;;;4.95;2.45;;;;;;;19.14;64.72;98602.78;5013156;28;20224;-64
2021/06/26 05:31:31;;;;;;;4.47;1.83;;;;;;;19.14;63.92;98598.31;5028853;28;20469;-65
2021/06/26 05:33:56;;;;;;;3.58;2.40;;;;;;;19.12;64.14;98605.63;5012879;28;20038;-66
2021/06/26 05:36:22;;;;;;;5.30;2.53;;;;;;;19.05;64.44;98599.53;5001692;28;20025;-65
2021/06/26 05:38:47;;;;;;;4.30;2.63;;;;;;;19.01;64.67;98593.03;5020254;28;20029;-65
2021/06/26 05:41:13;;;;;;;4.57;2.85;;;;;;;18.94;64.98;98598.28;5016940;28;20057;-66
2021/06/26 05:43:38;;;;;;;4.90;3.13;;;;;;;19.10;64.30;98612.91;5016951;28;20475;-66
2021/06/26 05:46:03;;;;;;;5.43;2.55;;;;;;;19.02;64.31;98592.03;5018444;28;20029;-65
2021/06/26 05:48:29;;;;;;;4.30;2.45;;;;;;;19.05;64.12;98606.63;5021178;28;20248;-65
2021/06/26 05:50:54;;;;;;;4.20;1.90;;;;;;;18.90;64.46;98583.88;5039672;28;20029;-64
2021/06/26 05:53:20;;;;;;;4.50;3.15;;;;;;;18.83;63.56;98583.06;5035404;28;20037;-66
2021/06/26 05:56:01;;;;;;;5.15;2.15;;;;;;;18.98;63.65;98602.16;5026702;28;20032;-66
2021/06/26 05:58:36;;;;;;;4.85;2.85;;;;;;;18.89;62.64;98570.91;5023612;28;20115;-66
2021/06/26 06:01:01;;;;;;;3.47;2.38;;;;;;;19.04;62.71;98612.91;5018510;28;20029;-65
2021/06/26 06:03:27;;;;;;;4.55;2.67;;;;;;;19.00;62.26;98605.41;5032525;28;20853;-65
2021/06/26 06:05:52;;;;;;;3.90;2.70;;;;;;;18.96;62.40;98603.34;5018753;28;20029;-67
2021/06/26 06:08:19;;;;;;;5.18;2.92;;;;;;;19.07;61.21;98609.88;5024342;28;20502;-66
2021/06/26 06:10:44;;;;;;;5.35;2.25;;;;;;;19.02;61.60;98608.66;4999529;28;20043;-66
2021/06/26 06:13:14;;;;;;;5.35;3.28;;;;;;;19.11;60.77;98609.28;5036998;28;20423;-65
2021/06/26 06:15:43;;;;;;;6.22;2.33;;;;;;;19.19;60.42;98613.56;5036316;28;20053;-66
2021/06/26 06:18:09;;;;;;;3.08;1.23;;;;;;;19.13;60.55;98601.16;5037837;28;20022;-65
2021/06/26 06:20:35;;;;;;;3.95;2.13;;;;;;;18.93;60.28;98562.44;5023116;28;20498;-65
2021/06/26 06:23:01;;;;;;;3.65;2.65;;;;;;;19.21;60.66;98611.53;5014524;28;20029;-65
2021/06/26 06:25:26;;;;;;;5.47;3.33;;;;;;;19.14;61.55;98605.44;5023143;28;20485;-65
2021/06/26 06:27:52;;;;;;;5.55;2.83;;;;;;;19.18;61.88;98590.84;5020611;28;20040;-65
2021/06/26 06:30:17;;;;;;;4.68;2.58;;;;;;;19.21;61.91;98596.50;5013167;28;20034;-65
2021/06/26 06:32:43;;;;;;;4.20;2.67;;;;;;;19.37;61.93;98603.22;5037118;28;20033;-65
2021/06/26 06:35:08;;;;;;;4.13;2.65;;;;;;;19.34;61.84;98600.19;5018431;28;20029;-65
2021/06/26 06:37:35;;;;;;;3.67;2.47;;;;;;;19.35;60.90;98594.72;5023718;28;20091;-65
2021/06/26 06:40:00;;;;;;;4.95;2.80;;;;;;;19.40;61.26;98602.00;5004712;28;20233;-65
2021/06/26 06:42:26;;;;;;;5.35;3.08;;;;;;;19.45;60.38;98602.22;5021673;28;20570;-65
2021/06/26 06:44:51;;;;;;;4.75;2.17;;;;;;;19.18;60.26;98559.22;5003012;28;20026;-66
2021/06/26 06:47:17;;;;;;;7.10;2.92;;;;;;;19.50;60.35;98599.78;5020904;28;20033;-65
2021/06/26 06:49:42;;;;;;;4.22;2.30;;;;;;;19.54;59.88;98614.19;5010739;28;20026;-65
2021/06/26 06:52:08;;;;;;;4.68;2.95;;;;;;;19.30;59.08;98565.50;5020400;28;20756;-65
2021/06/26 06:54:34;;;;;;;4.53;2.65;;;;;;;19.60;59.50;98617.84;5022674;28;20477;-65
2021/06/26 06:56:59;;;;;;;6.30;2.60;;;;;;;19.61;59.31;98608.91;5016892;28;20400;-64
2021/06/26 06:59:25;;;;;;;5.03;2.70;;;;;;;19.73;59.29;98601.22;5028696;28;20017;-64
2021/06/26 07:01:50;;;;;;;5.25;2.40;;;;;;;19.73;58.96;98582.75;5020175;28;20033;-65
2021/06/26 07:04:15;;;;;;;3.80;2.65;;;;;;;19.97;57.60;98619.06;5035606;28;21992;-64
2021/06/26 07:06:41;;;;;;;6.53;2.75;;;;;;;20.03;57.44;98627.19;5023349;28;20037;-64
2021/06/26 07:09:06;;;;;;;3.60;1.77;;;;;;;20.13;57.15;98622.28;5034660;28;20526;-64
2021/06/26 07:11:32;;;;;;;3.75;2.47;;;;;;;20.28;56.79;98628.16;5033751;28;20033;-64
2021/06/26 07:13:57;;;;;;;3.65;2.13;;;;;;;20.40;58.11;98619.59;5021930;28;21124;-64
2021/06/26 07:16:22;;;;;;;4.60;2.47;;;;;;;20.50;58.19;98610.22;5020063;28;20151;-66
2021/06/26 07:18:48;;;;;;;3.83;1.73;;;;;;;20.69;58.19;98618.28;5015744;28;20021;-64
2021/06/26 07:21:13;;;;;;;4.25;2.33;;;;;;;20.81;56.48;98619.25;5018663;28;20052;-65
2021/06/26 07:23:39;;;;;;;4.57;2.50;;;;;;;20.89;56.49;98613.72;5021944;28;20120;-65
2021/06/26 07:26:04;;;;;;;6.10;2.15;;;;;;;20.98;56.52;98613.50;5016615;28;20053;-64
2021/06/26 07:28:29;;;;;;;4.65;2.42;;;;;;;21.08;56.29;98611.16;5020624;28;20480;-65
2021/06/26 07:30:55;;;;;;;6.97;2.17;;;;;;;20.98;57.68;98573.84;5022155;28;20116;-64
2021/06/26 07:33:20;;;;;;;5.22;3.05;;;;;;;21.23;55.01;98610.88;5010562;28;20428;-64
2021/06/26 07:35:46;;;;;;;5.18;2.70;;;;;;;21.19;55.32;98618.44;5031670;28;20108;-63
2021/06/26 07:38:11;;;;;;;6.70;3.15;;;;;;;21.29;55.37;98621.41;5000594;28;20052;-64
2021/06/26 07:40:36;;;;;;;6.45;2.47;;;;;;;21.29;54.91;98610.84;5011414;28;20053;-64
2021/06/26 07:43:02;;;;;;;6.32;2.65;;;;;;;21.33;53.73;98618.34;5032539;28;20116;-66
2021/06/26 07:45:27;;;;;;;4.50;2.25;;;;;;;21.62;54.29;98617.75;5009935;28;20107;-64
2021/06/26 07:47:53;;;;;;;6.60;2.65;;;;;;;21.93;53.14;98613.41;5022510;28;20045;-65
2021/06/26 07:50:18;;;;;;;3.47;1.55;;;;;;;21.96;52.89;98617.44;5024594;28;20041;-65
2021/06/26 07:52:43;;;;;;;3.95;2.85;;;;;;;21.99;52.24;98607.22;5030797;28;20040;-64
2021/06/26 07:55:09;;;;;;;4.13;1.73;;;;;;;22.19;51.30;98616.81;5022355;28;20164;-64
2021/06/26 07:57:36;;;;;;;7.63;1.80;;;;;;;22.10;51.88;98613.63;5015138;28;20033;-64
2021/06/26 08:00:07;;;;;;;4.65;2.42;;;;;;;22.22;50.52;98608.44;5033387;28;20335;-62
2021/06/26 08:02:32;;;;;;;4.88;2.95;;;;;;;22.86;49.08;98608.94;5004013;28;20520;-65
2021/06/26 08:04:58;;;;;;;4.95;1.95;;;;;;;23.41;49.36;98606.09;5018657;28;20033;-65
2021/06/26 08:07:23;;;;;;;4.45;1.90;;;;;;;23.91;46.70;98589.00;5016078;28;20063;-63
2021/06/26 08:09:48;;;;;;;6.50;1.83;;;;;;;23.75;46.95;98602.94;5025449;28;20033;-64
2021/06/26 08:12:16;;;;;;;4.25;1.98;;;;;;;23.75;46.32;98560.47;5017685;28;20025;-65
2021/06/26 08:14:42;;;;;;;3.38;1.45;;;;;;;24.38;45.87;98561.53;5016154;28;20484;-63
2021/06/26 08:17:10;;;;;;;4.28;2.38;;;;;;;24.96;44.53;98596.94;5007411;28;20066;-65
2021/06/26 08:19:35;;;;;;;4.45;1.80;;;;;;;25.16;43.79;98603.66;4999286;28;20133;-64
2021/06/26 08:22:01;;;;;;;4.60;1.80;;;;;;;24.79;43.17;98599.56;5031454;28;20067;-64
2021/06/26 08:24:26;;;;;;;4.15;1.65;;;;;;;24.60;44.02;98603.44;5015817;28;20029;-65
2021/06/26 08:26:52;;;;;;;5.72;3.00;;;;;;;24.80;42.95;98577.22;5016892;28;20099;-64
2021/06/26 08:29:17;;;;;;;5.68;2.72;;;;;;;25.17;42.75;98600.75;5033127;28;20083;-65
2021/06/26 08:31:44;;;;;;;6.65;4.00;;;;;;;25.13;42.20;98597.78;5011296;28;20061;-62
2021/06/26 08:34:10;;;;;;;8.27;4.60;;;;;;;24.92;43.30;98606.44;5016129;28;20033;-64
2021/06/26 08:36:35;;;;;;;20.70;18.30;;;;;;;25.03;44.40;98602.91;5017323;28;20073;-63
2021/06/26 08:39:01;;;;;;;35.08;29.13;;;;;;;24.88;43.19;98599.97;5031449;28;20104;-62
2021/06/26 08:41:27;;;;;;;5.63;3.55;;;;;;;24.66;43.31;98584.69;5009492;28;20375;-64
2021/06/26 08:43:53;;;;;;;17.95;15.18;;;;;;;24.90;44.12;98592.59;5010721;28;20028;-63
2021/06/26 08:46:21;;;;;;;12.95;8.90;;;;;;;25.31;43.57;98554.19;5002812;28;20029;-65
2021/06/26 08:48:46;;;;;;;7.50;3.40;;;;;;;25.43;44.16;98596.69;5030184;28;20026;-63
2021/06/26 08:51:12;;;;;;;5.00;2.03;;;;;;;25.58;43.44;98593.47;5013797;28;20157;-64
2021/06/26 08:53:37;;;;;;;6.80;4.68;;;;;;;25.60;42.79;98593.22;5017907;28;20105;-63
2021/06/26 08:56:03;;;;;;;4.80;2.10;;;;;;;26.01;41.77;98594.66;5018639;28;20556;-65
2021/06/26 08:58:28;;;;;;;4.97;2.15;;;;;;;26.03;42.24;98557.94;5025890;28;20030;-63
2021/06/26 09:00:53;;;;;;;4.72;2.35;;;;;;;26.50;41.14;98577.91;5015035;28;20033;-63
2021/06/26 09:03:22;;;;;;;5.60;2.80;;;;;;;27.09;39.44;98577.22;5033910;28;20021;-63
2021/06/26 09:05:48;;;;;;;6.45;2.53;;;;;;;27.54;38.68;98576.00;5030618;28;20064;-63
2021/06/26 09:08:20;;;;;;;8.15;2.20;;;;;;;27.89;37.68;98576.47;4999557;28;20108;-65
2021/06/26 09:10:47;;;;;;;8.13;2.13;;;;;;;28.16;36.30;98574.50;4999959;28;20139;-65
2021/06/26 09:13:20;;;;;;;6.03;2.40;;;;;;;28.24;36.42;98580.41;5015045;28;20396;-64
2021/06/26 09:15:46;;;;;;;5.50;1.80;;;;;;;28.00;36.31;98570.16;5011222;28;20036;-64
2021/06/26 09:18:19;;;;;;;7.70;2.22;;;;;;;27.90;36.47;98551.41;4986063;28;20021;-63
2021/06/26 09:20:53;;;;;;;7.38;2.00;;;;;;;28.24;35.79;98569.72;5001350;28;20491;-63
2021/06/26 09:23:32;;;;;;;6.93;2.00;;;;;;;28.49;35.32;98569.81;5005014;28;20037;-62
2021/06/26 09:26:10;;;;;;;5.93;1.90;;;;;;;28.74;34.94;98573.66;5019690;28;20032;-64
2021/06/26 09:28:36;;;;;;;6.35;1.98;;;;;;;28.69;35.12;98566.41;5021460;28;20272;-64
2021/06/26 09:31:01;;;;;;;6.82;2.38;;;;;;;28.97;34.81;98567.03;5021227;28;20051;-62
2021/06/26 09:33:28;;;;;;;7.00;2.50;;;;;;;29.21;34.63;98561.97;5018963;28;20029;-63
2021/06/26 09:36:05;;;;;;;7.45;1.80;;;;;;;29.37;34.86;98559.28;5032337;28;20036;-63
2021/06/26 09:38:32;;;;;;;8.18;1.85;;;;;;;29.53;33.71;98563.53;5032282;28;20030;-61
2021/06/26 09:40:58;;;;;;;6.22;2.17;;;;;;;29.43;32.77;98567.03;5017691;28;20037;-63
2021/06/26 09:43:34;;;;;;;5.10;1.77;;;;;;;29.43;33.00;98558.22;5020516;28;20103;-62
2021/06/26 09:46:10;;;;;;;6.13;2.10;;;;;;;29.40;33.38;98556.88;5019294;28;20026;-63
2021/06/26 09:49:08;;;;;;;3.97;1.52;;;;;;;29.31;32.81;98558.47;5020581;28;20112;-63
2021/06/26 09:51:33;;;;;;;4.95;1.88;;;;;;;29.61;32.21;98556.81;4996825;28;20037;-64
2021/06/26 09:54:01;;;;;;;5.78;2.13;;;;;;;29.41;32.16;98523.66;5000374;28;20499;-64
2021/06/26 09:56:43;;;;;;;4.63;1.70;;;;;;;29.38;31.91;98531.44;5019070;28;20476;-65
2021/06/26 09:59:10;;;;;;;7.50;2.40;;;;;;;29.61;32.83;98559.50;5016789;28;20029;-64
2021/06/26 10:01:38;;;;;;;5.75;2.00;;;;;;;29.60;32.61;98552.56;5016559;28;20083;-64
2021/06/26 10:04:05;;;;;;;4.93;1.90;;;;;;;29.33;34.22;98516.16;5021895;28;20029;-62
2021/06/26 10:06:32;;;;;;;4.05;1.55;;;;;;;29.09;34.79;98545.34;5028224;28;20045;-62
2021/06/26 10:08:58;;;;;;;5.55;1.80;;;;;;;28.90;35.03;98545.88;5032985;28;20144;-61
2021/06/26 10:11:24;;;;;;;4.47;1.60;;;;;;;28.73;34.83;98545.28;5035851;28;20556;-64
2021/06/26 10:13:49;;;;;;;4.60;1.60;;;;;;;28.33;34.82;98539.56;5017919;28;20041;-63
2021/06/26 10:16:15;;;;;;;5.32;1.67;;;;;;;28.24;35.78;98537.66;5036691;28;20499;-63
2021/06/26 10:18:41;;;;;;;4.63;1.70;;;;;;;28.00;36.36;98538.09;5016370;28;20441;-63
2021/06/26 10:21:07;;;;;;;6.15;2.10;;;;;;;27.87;36.41;98530.53;5007296;28;20021;-63
2021/06/26 10:23:33;;;;;;;7.47;3.35;;;;;;;27.63;36.75;98524.78;5019926;28;20064;-64
2021/06/26 10:25:59;;;;;;;5.82;2.15;;;;;;;27.79;36.52;98532.63;5003858;28;20057;-63
2021/06/26 10:28:25;;;;;;;6.00;2.22;;;;;;;27.82;36.86;98528.66;5004778;28;20025;-63
2021/06/26 10:31:06;;;;;;;5.10;1.60;;;;;;;27.43;37.24;98488.88;5020530;28;20079;-63
2021/06/26 10:33:32;;;;;;;5.50;1.85;;;;;;;27.54;36.82;98517.25;5020417;28;20038;-63
2021/06/26 10:35:59;;;;;;;6.60;2.20;;;;;;;27.44;36.19;98487.03;5032060;28;20022;-63
2021/06/26 10:38:26;;;;;;;5.03;1.83;;;;;;;27.39;37.46;98490.47;5019917;28;20033;-64
2021/06/26 10:40:56;;;;;;;6.50;3.03;;;;;;;27.54;37.93;98511.13;5017911;28;20022;-63
2021/06/26 10:43:29;;;;;;;6.25;1.80;;;;;;;27.37;36.66;98506.75;5019351;28;20033;-63
2021/06/26 10:46:11;;;;;;;4.82;2.30;;;;;;;27.29;37.12;98509.91;5029591;28;20477;-64
2021/06/26 10:48:37;;;;;;;6.55;2.30;;;;;;;27.25;38.05;98482.06;5020201;28;20044;-63
2021/06/26 10:51:03;;;;;;;6.03;2.35;;;;;;;27.50;38.01;98512.69;5020904;28;20037;-63
2021/06/26 10:53:38;;;;;;;5.93;2.55;;;;;;;27.41;37.42;98491.00;5021551;28;20037;-65
2021/06/26 10:56:07;;;;;;;6.07;2.00;;;;;;;27.45;37.45;98497.44;5020043;28;20236;-65
2021/06/26 10:58:37;;;;;;;5.43;1.90;;;;;;;27.68;37.00;98504.25;5021799;28;20025;-65
2021/06/26 11:01:12;;;;;;;5.55;2.10;;;;;;;27.92;37.17;98501.19;5016723;28;20061;-64
2021/06/26 11:03:37;;;;;;;5.50;2.08;;;;;;;27.94;36.85;98504.41;5023113;28;20056;-64
2021/06/26 11:06:18;;;;;;;4.95;3.13;;;;;;;27.81;36.54;98498.44;5018775;28;20105;-63
2021/06/26 11:09:02;;;;;;;5.68;2.30;;;;;;;27.63;37.24;98501.56;5016096;28;20183;-63
2021/06/26 11:11:48;;;;;;;5.30;2.15;;;;;;;27.54;36.40;98458.50;5017665;28;20033;-63
2021/06/26 11:14:22;;;;;;;5.50;2.53;;;;;;;27.60;37.35;98467.38;5019280;28;20030;-63
2021/06/26 11:16:52;;;;;;;6.25;2.03;;;;;;;27.59;36.70;98465.75;5019958;28;20495;-64
2021/06/26 11:19:19;;;;;;;7.28;2.60;;;;;;;27.86;37.13;98494.22;5001665;28;20079;-64
2021/06/26 11:21:52;;;;;;;5.97;2.47;;;;;;;27.72;37.95;98488.53;5015308;28;20033;-63
2021/06/26 11:24:19;;;;;;;8.85;2.58;;;;;;;27.35;37.33;98455.47;5013632;28;20030;-65
2021/06/26 11:26:44;;;;;;;5.80;2.20;;;;;;;27.32;36.06;98465.88;5036082;28;20392;-63
2021/06/26 11:29:24;;;;;;;6.55;2.20;;;;;;;27.37;37.46;98495.28;5020679;28;20036;-66
2021/06/26 11:31:49;;;;;;;;;;;;;;;27.54;37.14;98493.22;5015987;28;20682;-66